Time;durP1;ratioP1;P1;durP2;ratioP2;P2;SDS_P1;SDS_P2;PMS_P1;PMS_P2;Temp;Humidity;BMP_temperature;BMP_pressure;BME280_temperature;BME280_humidity;BME280_pressure;Samples;Min_cycle;Max_cycle;Signal;HPM_P1;HPM_P2
2023/08/12 00:00:11;;;;;;;6.85;3.65;;;16.70;99.90;;;;;;4897383;29;20048;-74
2023/08/12 00:02:41;;;;;;;5.97;3.92;;;16.70;99.90;;;;;;4897785;29;20381;-73
2023/08/12 00:08:51;;;;;;;;;;;16.70;99.90;;;;;;5006459;23;20072;-74
2023/08/12 00:11:17;;;;;;;6.47;3.70;;;16.70;99.90;;;;;;4900298;29;20386;-73
2023/08/12 00:13:42;;;;;;;12.65;4.05;;;16.70;99.90;;;;;;4909872;29;20115;-74
2023/08/12 00:16:08;;;;;;;9.32;3.78;;;16.70;99.90;;;;;;4917630;29;20074;-74
2023/08/12 00:18:36;;;;;;;6.18;3.10;;;16.60;99.90;;;;;;4917064;29;20043;-73
2023/08/12 00:21:11;;;;;;;7.65;4.35;;;16.60;99.90;;;;;;4917360;29;20016;-74
2023/08/12 00:23:40;;;;;;;7.03;4.18;;;16.60;99.90;;;;;;4917364;29;20059;-74
2023/08/12 00:26:06;;;;;;;18.75;3.97;;;16.60;99.90;;;;;;4917114;29;20102;-74
2023/08/12 00:28:33;;;;;;;9.55;4.53;;;16.60;99.90;;;;;;4917113;29;20024;-73
2023/08/12 00:30:59;;;;;;;7.45;3.92;;;16.60;99.90;;;;;;4917070;29;20025;-73
2023/08/12 00:33:25;;;;;;;8.70;3.97;;;16.50;99.90;;;;;;4917317;29;20171;-73
2023/08/12 00:35:50;;;;;;;7.00;4.10;;;16.50;99.90;;;;;;4900191;29;20032;-74
2023/08/12 00:38:16;;;;;;;9.40;3.55;;;16.60;99.90;;;;;;4916584;29;20024;-74
2023/08/12 00:40:42;;;;;;;4.55;3.22;;;16.70;99.90;;;;;;4917073;29;20024;-74
2023/08/12 00:43:09;;;;;;;7.57;3.75;;;16.60;99.90;;;;;;4916774;29;20035;-73
2023/08/12 00:45:35;;;;;;;5.97;2.92;;;16.60;99.90;;;;;;4917154;29;20039;-73
2023/08/12 00:48:05;;;;;;;4.95;2.90;;;16.60;99.90;;;;;;4916753;29;20115;-72
2023/08/12 00:50:34;;;;;;;;;;;16.50;99.90;;;;;;4917214;29;20040;-73
2023/08/12 00:53:00;;;;;;;4.55;3.10;;;16.50;99.90;;;;;;4916481;29;19907;-74
2023/08/12 00:55:26;;;;;;;5.30;3.10;;;16.40;99.90;;;;;;4899892;29;20563;-74
2023/08/12 00:57:52;;;;;;;5.03;3.80;;;16.40;99.90;;;;;;4916905;29;20111;-74
2023/08/12 01:00:24;;;;;;;4.72;3.13;;;16.50;99.90;;;;;;4916595;29;20137;-74
2023/08/12 01:02:52;;;;;;;6.20;3.30;;;16.50;99.90;;;;;;4917033;29;20036;-73
2023/08/12 01:05:19;;;;;;;6.15;3.20;;;16.40;99.90;;;;;;4899411;29;20043;-73
2023/08/12 01:07:46;;;;;;;6.97;3.95;;;16.40;99.90;;;;;;4916538;29;20035;-73
2023/08/12 01:10:15;;;;;;;5.93;3.35;;;16.40;99.90;;;;;;4915831;29;20464;-74
2023/08/12 01:12:51;;;;;;;6.05;3.85;;;16.50;99.90;;;;;;4899797;29;20104;-72
2023/08/12 01:15:26;;;;;;;5.70;3.22;;;16.50;99.90;;;;;;4916338;29;20036;-73
2023/08/12 01:17:54;;;;;;;6.35;3.28;;;16.40;99.90;;;;;;4898463;29;20028;-73
2023/08/12 01:20:27;;;;;;;6.10;3.63;;;16.50;99.90;;;;;;4916664;29;20357;-73
2023/08/12 01:23:09;;;;;;;4.68;3.17;;;16.50;99.90;;;;;;4899005;29;20040;-73
2023/08/12 01:25:36;;;;;;;15.52;3.30;;;16.50;99.90;;;;;;4888159;29;20056;-73
2023/08/12 01:28:02;;;;;;;5.78;3.00;;;16.50;99.90;;;;;;4914893;29;20472;-73
2023/08/12 01:30:28;;;;;;;4.70;2.90;;;16.40;99.90;;;;;;4899121;29;20044;-73
2023/08/12 01:32:59;;;;;;;7.57;3.72;;;16.40;99.90;;;;;;4916257;29;20020;-74
2023/08/12 01:35:35;;;;;;;6.97;3.45;;;16.40;99.90;;;;;;4915988;29;20032;-74
2023/08/12 01:38:05;;;;;;;6.88;3.38;;;16.40;99.90;;;;;;4916116;29;20034;-73
2023/08/12 01:40:33;;;;;;;6.65;3.80;;;16.30;99.90;;;;;;4916012;29;20378;-73
2023/08/12 01:43:00;;;;;;;7.85;3.92;;;16.20;99.90;;;;;;4916022;29;20036;-73
2023/08/12 01:45:26;;;;;;;6.05;3.10;;;16.20;99.90;;;;;;4915890;29;20088;-73
2023/08/12 01:47:52;;;;;;;7.03;3.47;;;16.20;99.90;;;;;;4899039;29;20028;-73
2023/08/12 01:50:19;;;;;;;5.38;2.95;;;16.20;99.90;;;;;;4898918;29;20135;-73
2023/08/12 01:52:44;;;;;;;7.00;3.17;;;16.20;99.90;;;;;;4915907;29;20760;-73
2023/08/12 01:55:10;;;;;;;8.63;3.58;;;16.20;99.90;;;;;;4898532;29;20140;-73
2023/08/12 01:57:36;;;;;;;6.55;3.08;;;16.20;99.90;;;;;;4915782;29;20107;-73
2023/08/12 02:00:06;;;;;;;4.28;2.90;;;16.10;99.90;;;;;;4898891;29;20483;-73
2023/08/12 02:02:42;;;;;;;5.15;3.22;;;16.10;99.90;;;;;;4916033;29;20606;-73
2023/08/12 02:05:08;;;;;;;7.25;3.63;;;16.10;99.90;;;;;;4915486;29;20383;-73
2023/08/12 02:07:34;;;;;;;4.60;2.95;;;16.00;99.90;;;;;;4915786;29;20024;-73
2023/08/12 02:10:00;;;;;;;6.50;3.22;;;16.00;99.90;;;;;;4915217;29;20388;-73
2023/08/12 02:12:26;;;;;;;13.63;3.60;;;16.10;99.90;;;;;;4898943;29;20176;-72
2023/08/12 02:14:52;;;;;;;7.85;3.33;;;16.10;99.90;;;;;;4898763;29;20041;-73
2023/08/12 02:17:17;;;;;;;6.82;3.47;;;16.10;99.90;;;;;;4898760;29;20028;-73
2023/08/12 02:19:43;;;;;;;8.75;3.17;;;16.00;99.90;;;;;;4898451;29;20383;-73
2023/08/12 02:22:10;;;;;;;5.38;2.83;;;16.00;99.90;;;;;;4898703;29;20547;-73
2023/08/12 02:24:36;;;;;;;9.85;3.42;;;16.10;99.90;;;;;;4898454;29;20060;-73
2023/08/12 02:27:02;;;;;;;5.70;2.97;;;16.00;99.90;;;;;;4915555;29;20115;-73
2023/08/12 02:29:27;;;;;;;11.65;3.30;;;16.00;99.90;;;;;;4899566;29;20042;-73
2023/08/12 02:31:53;;;;;;;4.75;2.70;;;15.90;99.90;;;;;;4919314;29;20432;-73
2023/08/12 02:34:19;;;;;;;5.35;3.35;;;15.90;99.90;;;;;;4902383;29;20495;-73
2023/08/12 02:36:45;;;;;;;5.50;3.38;;;15.90;99.90;;;;;;4919214;29;20044;-73
2023/08/12 02:39:12;;;;;;;5.07;3.60;;;15.90;99.90;;;;;;4902123;29;20044;-73
2023/08/12 02:41:38;;;;;;;7.65;4.25;;;16.00;99.90;;;;;;4902054;29;20473;-73
2023/08/12 02:44:04;;;;;;;7.97;3.20;;;16.00;99.90;;;;;;4902185;29;20080;-73
2023/08/12 02:46:30;;;;;;;5.85;3.40;;;16.00;99.90;;;;;;4901943;29;20039;-72
2023/08/12 02:48:56;;;;;;;7.35;3.97;;;15.90;99.90;;;;;;4901949;29;20058;-73
2023/08/12 02:51:22;;;;;;;5.22;3.13;;;15.90;99.90;;;;;;4919040;29;20036;-73
2023/08/12 02:53:48;;;;;;;6.13;3.22;;;16.00;99.90;;;;;;4901584;29;20098;-73
2023/08/12 02:56:13;;;;;;;6.00;3.00;;;15.90;99.90;;;;;;4902040;29;20073;-73
2023/08/12 02:58:39;;;;;;;6.35;2.92;;;16.00;99.90;;;;;;4883437;29;20043;-73
2023/08/12 03:01:05;;;;;;;7.07;3.45;;;16.00;99.90;;;;;;4919039;29;20095;-74
2023/08/12 03:03:31;;;;;;;10.93;3.97;;;16.00;99.90;;;;;;4901567;29;20428;-73
2023/08/12 03:05:58;;;;;;;9.02;3.30;;;16.00;99.90;;;;;;4918768;29;20038;-73
2023/08/12 03:08:24;;;;;;;10.73;3.97;;;15.80;99.90;;;;;;4901367;29;20377;-73
2023/08/12 03:10:57;;;;;;;8.63;3.28;;;15.80;99.90;;;;;;4901883;29;20028;-73
2023/08/12 03:13:23;;;;;;;9.25;3.60;;;15.80;99.90;;;;;;4901586;29;20064;-73
2023/08/12 03:15:49;;;;;;;7.80;3.08;;;15.80;99.90;;;;;;4918506;29;20072;-73
2023/08/12 03:18:15;;;;;;;7.75;3.60;;;15.90;99.90;;;;;;4901626;29;20039;-72
2023/08/12 03:20:41;;;;;;;6.22;3.45;;;15.90;99.90;;;;;;4901326;29;20036;-73
2023/08/12 03:23:06;;;;;;;8.93;3.53;;;15.80;99.90;;;;;;4901595;29;20039;-73
2023/08/12 03:25:32;;;;;;;8.65;3.45;;;15.90;99.90;;;;;;4918073;29;20020;-72
2023/08/12 03:28:00;;;;;;;11.85;3.63;;;16.00;99.90;;;;;;4906087;29;20074;-73
2023/08/12 03:30:26;;;;;;;7.18;3.10;;;16.00;99.90;;;;;;4918233;29;20051;-74
2023/08/12 03:32:53;;;;;;;8.93;4.28;;;15.90;99.90;;;;;;4901221;29;20020;-73
2023/08/12 03:35:19;;;;;;;9.85;3.95;;;15.90;99.90;;;;;;4901162;29;20032;-75
2023/08/12 03:37:45;;;;;;;6.45;3.55;;;15.90;99.90;;;;;;4900910;29;20091;-74
2023/08/12 03:40:11;;;;;;;7.65;3.80;;;15.90;99.90;;;;;;4901038;29;20036;-76
2023/08/12 03:42:38;;;;;;;11.32;3.40;;;15.90;99.90;;;;;;4900251;29;20373;-74
2023/08/12 03:45:06;;;;;;;7.47;3.17;;;16.00;99.90;;;;;;4901170;29;20035;-74
2023/08/12 03:47:31;;;;;;;13.02;3.10;;;16.00;99.90;;;;;;4884456;29;20044;-75
2023/08/12 03:49:57;;;;;;;5.95;3.65;;;16.10;99.90;;;;;;4901013;29;20083;-75
2023/08/12 03:52:23;;;;;;;6.40;3.22;;;16.20;99.90;;;;;;4900981;29;20032;-75
2023/08/12 03:54:49;;;;;;;7.00;4.10;;;16.60;99.90;;;;;;4900985;29;20034;-74
2023/08/12 03:57:15;;;;;;;9.38;4.85;;;17.00;99.90;;;;;;4917708;29;20012;-73
2023/08/12 03:59:41;;;;;;;10.45;4.25;;;17.50;99.90;;;;;;4901188;29;20480;-74
2023/08/12 04:02:07;;;;;;;11.90;4.25;;;17.70;99.90;;;;;;4885057;29;20131;-73
2023/08/12 04:04:33;;;;;;;7.85;3.85;;;18.00;99.90;;;;;;4900907;29;20028;-72
2023/08/12 04:06:58;;;;;;;5.55;3.47;;;18.40;99.90;;;;;;4917686;29;20460;-73
2023/08/12 04:09:24;;;;;;;8.07;3.20;;;18.80;99.90;;;;;;4917217;29;20507;-73
2023/08/12 04:11:50;;;;;;;5.88;3.25;;;19.40;99.90;;;;;;4900588;29;20123;-73
2023/08/12 04:14:16;;;;;;;5.70;3.03;;;19.80;99.10;;;;;;4917648;29;20361;-73
2023/08/12 04:16:42;;;;;;;10.32;3.33;;;20.00;97.70;;;;;;4900556;29;20380;-73
2023/08/12 04:19:08;;;;;;;14.93;4.20;;;19.80;97.20;;;;;;4902878;29;20019;-72
2023/08/12 04:21:34;;;;;;;4.07;2.72;;;20.50;96.70;;;;;;4909346;29;20066;-73
2023/08/12 04:24:00;;;;;;;5.93;3.60;;;20.40;95.70;;;;;;4907561;29;20043;-72
2023/08/12 04:26:26;;;;;;;6.45;3.97;;;21.30;94.80;;;;;;4900263;29;20035;-72
2023/08/12 04:28:54;;;;;;;6.72;3.63;;;21.40;93.40;;;;;;4900331;29;20488;-73
2023/08/12 04:31:21;;;;;;;7.28;3.70;;;21.90;92.30;;;;;;4917052;29;20032;-72
2023/08/12 04:33:47;;;;;;;9.45;4.03;;;22.00;92.30;;;;;;4900317;29;20035;-72
2023/08/12 04:36:14;;;;;;;6.57;4.30;;;22.00;91.60;;;;;;4900051;29;20480;-73
2023/08/12 04:38:40;;;;;;;9.80;4.72;;;;;;;;;;4900041;29;20044;-73
2023/08/12 04:41:09;;;;;;;7.57;4.47;;;;;;;;;;4899947;29;20099;-73
2023/08/12 04:43:36;;;;;;;11.25;3.78;;;23.10;89.90;;;;;;4900117;29;20028;-73
2023/08/12 04:46:02;;;;;;;7.38;3.95;;;;;;;;;;4899992;29;20028;-74
2023/08/12 04:48:31;;;;;;;8.80;4.30;;;24.10;99.90;;;;;;4900049;29;20080;-73
2023/08/12 04:51:00;;;;;;;9.35;4.28;;;24.50;85.10;;;;;;4899856;29;20107;-73
2023/08/12 04:53:25;;;;;;;7.22;3.95;;;24.80;83.20;;;;;;4899548;29;20028;-73
2023/08/12 04:55:52;;;;;;;9.52;4.45;;;24.30;81.90;;;;;;4899808;29;20123;-73
2023/08/12 04:58:18;;;;;;;9.05;3.78;;;24.10;81.70;;;;;;4899943;29;20036;-73
2023/08/12 05:00:44;;;;;;;6.28;3.67;;;24.20;82.40;;;;;;4916820;29;20045;-73
2023/08/12 05:03:11;;;;;;;7.60;3.50;;;24.80;82.60;;;;;;4899549;29;20566;-73
2023/08/12 05:05:37;;;;;;;7.97;3.28;;;25.20;81.20;;;;;;4885324;29;20059;-72
2023/08/12 05:08:03;;;;;;;7.57;2.72;;;25.30;80.70;;;;;;4926489;29;20035;-74
2023/08/12 05:10:29;;;;;;;6.43;3.30;;;25.40;79.00;;;;;;4908273;29;20186;-73
2023/08/12 05:12:57;;;;;;;6.07;2.83;;;24.40;80.30;;;;;;4902970;29;20127;-73
2023/08/12 05:15:25;;;;;;;8.10;3.45;;;22.80;83.40;;;;;;4910188;29;20036;-73
2023/08/12 05:17:51;;;;;;;8.50;3.45;;;22.50;85.00;;;;;;4905383;29;20027;-72
2023/08/12 05:20:20;;;;;;;7.20;3.05;;;22.10;86.10;;;;;;4909032;29;20043;-73
2023/08/12 05:22:47;;;;;;;8.90;3.42;;;21.50;88.40;;;;;;4930005;29;20404;-73
2023/08/12 05:25:13;;;;;;;8.82;3.10;;;20.90;90.00;;;;;;4902281;29;20197;-73
2023/08/12 05:27:39;;;;;;;8.77;3.60;;;20.90;90.60;;;;;;4914812;29;20106;-73
2023/08/12 05:30:05;;;;;;;5.95;3.33;;;20.80;90.60;;;;;;4915407;29;20158;-73
2023/08/12 05:32:31;;;;;;;5.85;3.58;;;20.10;91.70;;;;;;4915544;29;20016;-73
2023/08/12 05:34:57;;;;;;;9.20;3.88;;;20.10;92.60;;;;;;4915851;29;20154;-72
2023/08/12 05:37:23;;;;;;;8.30;3.75;;;20.10;93.30;;;;;;4925386;29;20023;-73
2023/08/12 05:39:49;;;;;;;9.45;3.33;;;19.80;93.80;;;;;;4922290;29;20237;-73
2023/08/12 05:42:14;;;;;;;9.32;3.60;;;19.90;94.80;;;;;;4925381;29;20119;-73
2023/08/12 05:44:42;;;;;;;8.27;3.38;;;20.00;94.50;;;;;;4928799;29;20502;-73
2023/08/12 05:47:08;;;;;;;7.13;3.67;;;20.00;95.50;;;;;;4915846;29;20040;-73
2023/08/12 05:49:33;;;;;;;9.70;3.78;;;20.20;96.00;;;;;;4915985;29;20043;-74
2023/08/12 05:51:59;;;;;;;9.38;3.85;;;20.20;96.10;;;;;;4926549;29;20043;-74
2023/08/12 05:54:25;;;;;;;5.82;3.78;;;20.30;96.30;;;;;;4922378;29;20106;-73
2023/08/12 05:56:51;;;;;;;7.53;3.90;;;20.60;94.80;;;;;;4923399;29;20470;-73
2023/08/12 05:59:16;;;;;;;5.97;3.22;;;20.70;94.80;;;;;;4916056;29;20035;-73
2023/08/12 06:01:42;;;;;;;14.30;4.63;;;20.60;94.70;;;;;;4911257;29;20036;-73
2023/08/12 06:04:08;;;;;;;7.43;3.42;;;20.90;94.70;;;;;;4917381;29;20028;-73
2023/08/12 06:06:34;;;;;;;6.15;3.10;;;20.90;94.30;;;;;;4921837;29;20032;-72
2023/08/12 06:08:59;;;;;;;8.38;3.45;;;20.90;94.50;;;;;;4914699;29;20048;-73
2023/08/12 06:11:25;;;;;;;8.63;3.40;;;20.90;94.60;;;;;;4908204;29;20071;-73
2023/08/12 06:13:51;;;;;;;7.68;4.18;;;20.90;94.60;;;;;;4885996;29;20036;-73
2023/08/12 06:16:17;;;;;;;6.95;3.50;;;20.90;94.40;;;;;;4903196;29;20043;-73
2023/08/12 06:18:42;;;;;;;10.20;4.60;;;21.00;94.50;;;;;;4903118;29;20025;-73
2023/08/12 06:21:08;;;;;;;7.53;4.10;;;21.20;94.90;;;;;;4904932;29;20388;-72
2023/08/12 06:23:34;;;;;;;10.52;5.47;;;21.30;94.30;;;;;;4921905;29;20083;-72
2023/08/12 06:26:03;;;;;;;8.63;4.72;;;21.30;94.40;;;;;;4921756;29;20084;-73
2023/08/12 06:28:29;;;;;;;15.05;5.95;;;21.70;94.10;;;;;;4912056;29;20032;-73
2023/08/12 06:30:55;;;;;;;8.77;4.80;;;21.70;94.00;;;;;;4902987;29;20037;-73
2023/08/12 06:33:21;;;;;;;16.52;5.13;;;21.90;93.80;;;;;;4932317;29;20031;-73
2023/08/12 06:35:47;;;;;;;9.60;5.05;;;22.00;93.40;;;;;;4904736;29;20395;-73
2023/08/12 06:38:13;;;;;;;8.10;5.15;;;22.00;93.10;;;;;;4923450;29;20024;-73
2023/08/12 06:40:39;;;;;;;10.15;4.90;;;21.90;93.70;;;;;;4939160;29;20039;-73
2023/08/12 06:43:07;;;;;;;12.50;5.03;;;22.30;92.30;;;;;;4921892;29;20039;-73
2023/08/12 06:45:33;;;;;;;10.45;4.75;;;22.40;92.60;;;;;;4934230;29;20038;-73
2023/08/12 06:47:58;;;;;;;9.07;4.03;;;22.60;92.20;;;;;;4918328;29;20096;-73
2023/08/12 06:50:24;;;;;;;10.80;4.68;;;22.90;92.50;;;;;;4885556;29;20084;-73
2023/08/12 06:52:50;;;;;;;9.27;4.63;;;23.10;91.00;;;;;;4922918;29;20020;-73
2023/08/12 06:55:16;;;;;;;10.73;4.93;;;23.20;90.50;;;;;;4927719;29;20048;-73
2023/08/12 06:57:41;;;;;;;10.85;4.85;;;23.30;91.80;;;;;;4934328;29;20028;-74
2023/08/12 07:00:08;;;;;;;6.53;3.95;;;23.20;90.60;;;;;;4928399;29;20039;-73
2023/08/12 07:02:34;;;;;;;7.88;3.38;;;23.00;90.90;;;;;;4933784;29;20424;-73
2023/08/12 07:04:59;;;;;;;8.23;4.32;;;23.20;91.00;;;;;;4921713;29;20160;-73
2023/08/12 07:07:25;;;;;;;8.13;4.45;;;22.90;90.70;;;;;;4933911;29;20369;-72
2023/08/12 07:09:51;;;;;;;8.85;3.90;;;23.40;90.60;;;;;;4921052;29;20052;-72
2023/08/12 07:12:17;;;;;;;8.20;4.07;;;23.20;90.50;;;;;;4921259;29;20861;-73
2023/08/12 07:14:43;;;;;;;7.20;3.25;;;23.70;91.20;;;;;;4921471;29;20024;-73
2023/08/12 07:17:09;;;;;;;8.90;3.92;;;23.70;91.00;;;;;;4917370;29;20024;-73
2023/08/12 07:19:34;;;;;;;7.00;3.25;;;23.90;90.40;;;;;;4918501;29;20115;-73
2023/08/12 07:22:00;;;;;;;10.45;3.92;;;23.90;88.90;;;;;;4918387;29;20031;-73
2023/08/12 07:24:26;;;;;;;12.23;3.75;;;23.90;90.40;;;;;;4918334;29;20492;-73
2023/08/12 07:26:52;;;;;;;9.07;3.72;;;24.10;89.20;;;;;;4918145;29;20470;-73
2023/08/12 07:29:18;;;;;;;12.02;4.70;;;24.00;89.30;;;;;;4930790;29;20046;-73
2023/08/12 07:31:43;;;;;;;8.95;4.15;;;24.00;89.10;;;;;;4918392;29;20107;-73
2023/08/12 07:34:12;;;;;;;10.65;4.25;;;24.10;87.70;;;;;;4917918;29;20047;-73
2023/08/12 07:36:40;;;;;;;7.43;4.32;;;24.20;89.10;;;;;;4913453;29;20032;-73
2023/08/12 07:39:06;;;;;;;6.57;3.50;;;24.50;85.50;;;;;;4925524;29;20035;-73
2023/08/12 07:41:33;;;;;;;9.02;3.47;;;24.30;88.70;;;;;;4924676;29;20024;-73
2023/08/12 07:43:58;;;;;;;10.73;4.35;;;24.60;86.00;;;;;;4928853;29;20495;-73
2023/08/12 07:46:24;;;;;;;9.57;4.18;;;24.50;85.00;;;;;;4917923;29;20029;-73
2023/08/12 07:48:50;;;;;;;8.05;3.85;;;24.60;88.40;;;;;;4917678;29;20036;-73
2023/08/12 07:51:16;;;;;;;8.30;4.00;;;24.70;84.40;;;;;;4917660;29;20044;-74
2023/08/12 07:53:42;;;;;;;12.43;5.13;;;24.70;86.00;;;;;;4917881;29;20115;-74
2023/08/12 07:56:08;;;;;;;8.70;3.85;;;24.80;85.00;;;;;;4899860;29;20040;-73
2023/08/12 07:58:34;;;;;;;7.60;3.08;;;25.10;85.90;;;;;;4916409;29;20032;-72
2023/08/12 08:01:00;;;;;;;7.68;3.53;;;25.30;84.00;;;;;;4915483;29;20040;-73
2023/08/12 08:03:25;;;;;;;7.78;3.97;;;25.20;82.20;;;;;;4916565;29;20483;-73
2023/08/12 08:05:52;;;;;;;7.20;3.83;;;25.20;83.50;;;;;;4907305;29;20397;-72
2023/08/12 08:08:31;;;;;;;9.55;4.28;;;25.10;84.50;;;;;;4897775;29;20107;-74
2023/08/12 08:11:03;;;;;;;6.95;3.35;;;25.50;83.10;;;;;;4909207;29;20400;-72
2023/08/12 08:13:29;;;;;;;6.90;3.47;;;25.30;84.30;;;;;;4904079;29;20036;-73
2023/08/12 08:16:01;;;;;;;6.50;3.22;;;25.60;85.20;;;;;;4899964;29;20381;-73
2023/08/12 08:18:27;;;;;;;8.05;3.80;;;25.80;84.50;;;;;;4908520;29;20024;-73
2023/08/12 08:20:53;;;;;;;8.75;3.25;;;26.00;82.70;;;;;;4915443;29;20028;-73
2023/08/12 08:23:19;;;;;;;10.10;3.85;;;25.90;80.10;;;;;;4916985;29;20046;-73
2023/08/12 08:25:45;;;;;;;7.07;3.58;;;25.80;82.50;;;;;;4915851;29;20107;-72
2023/08/12 08:28:11;;;;;;;7.00;3.75;;;26.00;80.30;;;;;;4916450;29;20067;-73
2023/08/12 08:30:37;;;;;;;7.72;3.83;;;26.10;79.70;;;;;;4916341;29;20629;-72
2023/08/12 08:33:03;;;;;;;5.85;3.15;;;26.10;81.40;;;;;;4910107;29;20029;-73
2023/08/12 08:35:29;;;;;;;10.25;3.40;;;26.20;82.10;;;;;;4899222;29;20044;-73
2023/08/12 08:37:54;;;;;;;6.32;3.10;;;26.00;84.50;;;;;;4881280;29;20474;-73
2023/08/12 08:40:20;;;;;;;7.28;3.40;;;26.30;81.50;;;;;;4897725;29;20040;-73
2023/08/12 08:42:49;;;;;;;6.03;3.22;;;26.40;82.00;;;;;;4898239;29;20039;-73
2023/08/12 08:45:16;;;;;;;5.68;2.90;;;26.80;82.50;;;;;;4904412;29;20384;-73
2023/08/12 08:47:42;;;;;;;6.40;3.28;;;26.90;82.90;;;;;;4916852;29;20468;-73
2023/08/12 08:50:10;;;;;;;9.32;3.30;;;27.10;77.10;;;;;;4908913;29;20560;-73
2023/08/12 08:52:37;;;;;;;12.02;3.17;;;27.00;81.50;;;;;;4896804;29;20072;-72
2023/08/12 08:55:04;;;;;;;8.48;3.10;;;26.80;78.70;;;;;;4896966;29;20047;-72
2023/08/12 08:57:30;;;;;;;7.53;3.22;;;27.40;80.40;;;;;;4897157;29;20044;-73
2023/08/12 08:59:56;;;;;;;6.07;3.30;;;27.50;78.00;;;;;;4897892;29;20301;-73
2023/08/12 09:02:23;;;;;;;6.13;3.05;;;27.60;77.50;;;;;;4897581;29;20536;-72
2023/08/12 09:04:50;;;;;;;8.38;3.20;;;27.80;77.50;;;;;;4897519;29;20111;-72
2023/08/12 09:07:16;;;;;;;6.43;3.40;;;27.90;76.40;;;;;;4897415;29;20093;-73
2023/08/12 09:09:47;;;;;;;8.70;3.40;;;27.90;74.00;;;;;;4898766;29;20052;-73
2023/08/12 09:12:15;;;;;;;5.80;3.05;;;27.30;75.10;;;;;;4903146;29;20059;-73
2023/08/12 09:14:42;;;;;;;9.60;3.10;;;27.30;74.10;;;;;;4904684;29;20480;-73
2023/08/12 09:17:08;;;;;;;4.38;2.72;;;27.50;73.30;;;;;;4916011;29;20028;-73
2023/08/12 09:19:34;;;;;;;3.15;2.30;;;27.50;73.00;;;;;;4916296;29;20476;-73
2023/08/12 09:22:04;;;;;;;10.63;2.92;;;27.70;72.00;;;;;;4916289;29;20023;-73
2023/08/12 09:24:30;;;;;;;4.00;2.65;;;27.60;72.30;;;;;;4916103;29;20047;-73
2023/08/12 09:26:56;;;;;;;5.22;3.00;;;27.60;74.70;;;;;;4925810;29;20391;-73
2023/08/12 09:29:35;;;;;;;4.72;2.53;;;27.10;73.40;;;;;;4918919;29;20535;-73
2023/08/12 09:32:11;;;;;;;3.72;2.13;;;27.20;71.10;;;;;;4900674;29;20068;-72
2023/08/12 09:34:37;;;;;;;5.18;2.40;;;27.20;71.10;;;;;;4916369;29;20040;-73
2023/08/12 09:37:03;;;;;;;2.88;2.10;;;27.10;71.70;;;;;;4898435;29;20076;-72
2023/08/12 09:39:30;;;;;;;4.40;2.30;;;26.70;69.60;;;;;;4915407;29;20036;-73
2023/08/12 09:41:56;;;;;;;5.75;2.20;;;26.80;69.70;;;;;;4915491;29;20043;-73
2023/08/12 09:44:22;;;;;;;5.25;2.40;;;27.00;73.40;;;;;;4916048;29;20419;-73
2023/08/12 09:46:48;;;;;;;3.70;2.33;;;27.50;74.40;;;;;;4915805;29;20032;-73
2023/08/12 09:49:14;;;;;;;4.18;2.55;;;27.60;72.20;;;;;;4916077;29;20035;-73
2023/08/12 09:51:42;;;;;;;5.85;2.70;;;27.70;72.50;;;;;;4915784;29;20051;-72
2023/08/12 09:54:11;;;;;;;4.32;2.35;;;27.60;72.10;;;;;;4916135;29;20123;-72
2023/08/12 09:56:38;;;;;;;5.93;3.20;;;27.50;70.30;;;;;;4915968;29;20043;-72
2023/08/12 09:59:09;;;;;;;4.05;2.40;;;27.50;71.60;;;;;;4915709;29;20171;-72
2023/08/12 10:01:36;;;;;;;3.45;2.30;;;27.40;71.20;;;;;;4915775;29;20041;-72
2023/08/12 10:04:08;;;;;;;4.28;2.00;;;27.60;71.00;;;;;;4915710;29;20035;-73
2023/08/12 10:06:34;;;;;;;5.03;2.45;;;27.60;72.90;;;;;;4915673;29;20040;-74
2023/08/12 10:09:01;;;;;;;5.15;2.20;;;27.10;70.00;;;;;;4915291;29;20048;-73
2023/08/12 10:11:27;;;;;;;5.55;2.50;;;27.20;73.70;;;;;;4915720;29;20032;-73
2023/08/12 10:13:53;;;;;;;4.28;2.22;;;27.40;70.50;;;;;;4915915;29;20064;-73
2023/08/12 10:16:20;;;;;;;4.97;2.95;;;27.50;69.20;;;;;;4915407;29;20040;-73
2023/08/12 10:18:46;;;;;;;5.20;2.53;;;;;;;;;;4916177;29;20441;-74
2023/08/12 10:21:13;;;;;;;18.67;3.10;;;27.90;72.80;;;;;;4915442;29;20032;-73
2023/08/12 10:23:41;;;;;;;4.40;2.80;;;28.50;72.10;;;;;;4915823;29;20103;-73
2023/08/12 10:26:08;;;;;;;3.03;1.92;;;28.40;73.10;;;;;;4915387;29;20037;-73
2023/08/12 10:28:36;;;;;;;4.80;2.85;;;28.00;67.60;;;;;;4915869;29;20112;-74
2023/08/12 10:31:05;;;;;;;4.03;2.00;;;27.70;68.70;;;;;;4915111;29;20040;-73
2023/08/12 10:33:37;;;;;;;4.30;2.63;;;27.70;70.30;;;;;;4915719;29;20103;-73
2023/08/12 10:36:03;;;;;;;3.15;2.25;;;27.80;70.10;;;;;;4915364;29;20020;-73
2023/08/12 10:38:29;;;;;;;5.38;2.53;;;27.50;67.70;;;;;;4915266;29;20031;-73
2023/08/12 10:41:16;;;;;;;5.45;2.88;;;27.70;68.70;;;;;;4915190;29;20539;-73
2023/08/12 10:43:50;;;;;;;5.50;2.35;;;27.80;69.90;;;;;;4915235;29;20463;-73
2023/08/12 10:46:36;;;;;;;3.42;2.65;;;27.70;70.10;;;;;;4915221;29;20032;-73
2023/08/12 10:49:08;;;;;;;4.35;2.45;;;27.60;69.50;;;;;;4898291;29;20115;-72
2023/08/12 10:51:47;;;;;;;4.50;2.10;;;27.80;71.40;;;;;;4918005;29;20469;-72
2023/08/12 10:54:30;;;;;;;5.47;2.30;;;27.90;70.70;;;;;;4906746;29;20373;-72
2023/08/12 10:57:05;;;;;;;5.57;2.20;;;27.60;69.60;;;;;;4918810;29;20130;-73
2023/08/12 10:59:46;;;;;;;4.03;2.40;;;28.00;71.80;;;;;;4918757;29;20032;-73
2023/08/12 11:02:21;;;;;;;3.35;2.20;;;28.00;68.80;;;;;;4918572;29;20040;-72
2023/08/12 11:04:57;;;;;;;4.65;2.75;;;27.80;69.30;;;;;;4918719;29;20028;-73
2023/08/12 11:07:33;;;;;;;2.65;2.13;;;27.60;68.20;;;;;;4918537;29;20120;-73
2023/08/12 11:10:14;;;;;;;3.42;2.20;;;27.70;70.20;;;;;;4918085;29;20048;-73
2023/08/12 11:12:42;;;;;;;3.78;2.55;;;27.70;71.30;;;;;;4918597;29;20036;-73
2023/08/12 11:15:09;;;;;;;3.80;2.40;;;28.00;70.70;;;;;;4901141;29;20396;-73
2023/08/12 11:17:38;;;;;;;4.50;2.63;;;28.20;69.80;;;;;;4918788;29;20028;-73
2023/08/12 11:20:10;;;;;;;2.83;2.10;;;28.20;67.20;;;;;;4918378;29;20484;-73
2023/08/12 11:22:38;;;;;;;8.02;2.80;;;28.50;69.60;;;;;;4918449;29;20375;-73
2023/08/12 11:25:09;;;;;;;6.93;2.50;;;28.70;85.80;;;;;;4918451;29;20163;-73
2023/08/12 11:27:56;;;;;;;3.03;2.30;;;28.60;86.30;;;;;;4917846;29;20050;-73
2023/08/12 11:30:22;;;;;;;5.10;2.83;;;28.40;86.80;;;;;;4918321;29;20052;-73
2023/08/12 11:32:51;;;;;;;4.28;2.55;;;28.30;87.90;;;;;;4918362;29;20034;-73
2023/08/12 11:35:18;;;;;;;4.22;2.28;;;28.30;85.30;;;;;;4918053;29;20487;-73
2023/08/12 11:37:47;;;;;;;2.20;1.90;;;28.20;84.70;;;;;;4918395;29;20036;-73
2023/08/12 11:40:15;;;;;;;5.95;2.67;;;28.00;85.90;;;;;;4917935;29;20035;-73
2023/08/12 11:42:44;;;;;;;3.60;2.22;;;28.10;84.20;;;;;;4918033;29;20040;-73
2023/08/12 11:45:10;;;;;;;5.63;2.50;;;28.00;84.20;;;;;;4918024;29;20047;-73
2023/08/12 11:47:39;;;;;;;3.90;2.47;;;27.90;84.90;;;;;;4917955;29;20396;-73
2023/08/12 11:50:07;;;;;;;4.25;2.08;;;27.60;84.80;;;;;;4918149;29;20396;-73
2023/08/12 11:52:33;;;;;;;2.83;2.13;;;27.40;69.10;;;;;;4905313;29;20388;-74
2023/08/12 11:55:00;;;;;;;4.63;2.15;;;27.30;74.10;;;;;;4917626;29;20047;-73
2023/08/12 11:57:27;;;;;;;3.70;2.20;;;27.30;74.10;;;;;;4917676;29;20028;-73
2023/08/12 12:00:00;;;;;;;3.10;2.05;;;27.30;73.30;;;;;;4917659;29;20421;-73
2023/08/12 12:02:26;;;;;;;4.13;2.13;;;26.90;68.00;;;;;;4917017;29;20056;-73
2023/08/12 12:04:53;;;;;;;3.58;2.15;;;26.70;66.40;;;;;;4917615;29;20480;-73
2023/08/12 12:07:19;;;;;;;5.13;2.78;;;26.70;66.10;;;;;;4917820;29;20036;-73
2023/08/12 12:09:45;;;;;;;4.30;1.90;;;26.90;66.00;;;;;;4917019;29;20052;-73
2023/08/12 12:12:11;;;;;;;2.47;2.03;;;27.20;66.80;;;;;;4917607;29;20436;-73
2023/08/12 12:14:37;;;;;;;2.53;2.03;;;27.30;64.90;;;;;;4917223;29;20040;-73
2023/08/12 12:17:12;;;;;;;4.13;2.10;;;27.40;65.00;;;;;;4917577;29;20083;-73
2023/08/12 12:19:40;;;;;;;3.05;1.92;;;27.60;65.70;;;;;;4917456;29;20040;-73
2023/08/12 12:22:06;;;;;;;6.15;2.22;;;27.70;64.40;;;;;;4925455;29;20024;-73
2023/08/12 12:24:46;;;;;;;2.85;1.73;;;27.80;63.30;;;;;;4920175;29;20460;-73
2023/08/12 12:27:13;;;;;;;3.05;1.92;;;27.80;62.80;;;;;;4921440;29;20023;-73
2023/08/12 12:29:40;;;;;;;3.42;2.13;;;27.90;64.50;;;;;;4923616;29;20039;-72
2023/08/12 12:32:05;;;;;;;3.47;2.55;;;27.90;64.40;;;;;;4924061;29;20433;-73
2023/08/12 12:34:31;;;;;;;5.03;2.17;;;28.10;66.10;;;;;;4917229;29;20040;-72
2023/08/12 12:36:57;;;;;;;2.80;2.38;;;28.20;76.80;;;;;;4916813;29;20036;-73
2023/08/12 12:39:23;;;;;;;5.40;2.30;;;27.30;64.00;;;;;;4917054;29;20548;-72
2023/08/12 12:41:49;;;;;;;4.43;2.45;;;28.20;64.70;;;;;;4929249;29;20059;-73
2023/08/12 12:44:15;;;;;;;5.15;2.08;;;;;;;;;;4917533;29;20042;-73
2023/08/12 12:46:41;;;;;;;6.10;2.33;;;28.50;65.60;;;;;;4929782;29;20464;-73
2023/08/12 12:49:07;;;;;;;2.83;2.20;;;;;;;;;;4916640;29;20050;-73
2023/08/12 12:51:33;;;;;;;3.55;2.08;;;;;;;;;;4916816;29;20076;-73